Rising Fawn, Georgia
Current Conditions -  °F | °C
As of 4:15 PM on Wednesday 26 Nov 2014 (Local Time) from K4A9 Reporting Station
Broken Clouds Broken Clouds  
Wind Chill: 50°   Ceiling: 11000
Heat Index: 50°   Visibility: 10mi
Dew Point: 21°   Wind: 6mph
Humidity: 32%   Direction: 250°WSW
Pressure: 30.06"   Gusts: NA
Location:  34.76°N, 85.53°W
Report Text: K4A9 262115Z AUTO 25005KT 10SM BKN110 10/M06 A3006 RMK AO2
Loading
Personal Weather Stations






























Interactive Weather Map New forecast layout! Learn more

10-Day Weather Forecast

Advertisements
Track Severe Weather on mobile